<?xml version="1.0" encoding="UTF-8" standalone="no" ?>
<gpx xmlns="http://www.topografix.com/GPX/1/1" xmlns:xsi="http://www.w3.org/2001/XMLSchema-instance" xsi:schemaLocation="http://www.topografix.com/GPX/1/1 http://www.topografix.com/GPX/1/1/gpx.xsd" version="1.1" creator="VisuGPX - https://www.visugpx.com">
  <metadata>
    <name>Randonnée Etang bleu 08-07-2018</name>
    <desc><![CDATA[Randonnée pédestre-Boucle de 10 km vers l'étang bleu-]]></desc>
  </metadata>
  <wpt lat="42.84032" lon="1.48519">
    <ele>1049</ele>
    <name><![CDATA[Parking du Pla du Resse]]></name>
  </wpt>
  <wpt lat="42.83889" lon="1.47598">
    <ele>1092</ele>
    <name><![CDATA[Passage à gué]]></name>
  </wpt>
  <wpt lat="42.83777" lon="1.47912">
    <ele>1144</ele>
    <name><![CDATA[À droite sur la piste]]></name>
  </wpt>
  <wpt lat="42.82272" lon="1.4606">
    <ele>1784</ele>
    <name><![CDATA[Étang Bleu]]></name>
  </wpt>
  <wpt lat="42.83029" lon="1.45226">
    <ele>1566</ele>
    <name><![CDATA[Cirque d’Embans]]></name>
  </wpt>
  <wpt lat="42.83898" lon="1.4635">
    <ele>1193</ele>
    <name><![CDATA[Cabane d’Embanels]]></name>
  </wpt>
  <wpt lat="42.84031" lon="1.48518">
    <ele>1049</ele>
    <name><![CDATA[Parking du Pla du Resse]]></name>
  </wpt>
  <trk>
    <name><![CDATA[L'Étang Bleu]]></name>
    <trkseg>
      <trkpt lat="42.84032" lon="1.48519">
        <ele>1049</ele>
        <time>2018-07-10T23:18:30+02:00</time>
      </trkpt>
      <trkpt lat="42.84017" lon="1.48448">
        <ele>1053</ele>
        <time>2018-07-10T23:18:35+02:00</time>
      </trkpt>
      <trkpt lat="42.83996" lon="1.48374">
        <ele>1055</ele>
        <time>2018-07-10T23:18:40+02:00</time>
      </trkpt>
      <trkpt lat="42.83977" lon="1.48265">
        <ele>1069</ele>
        <time>2018-07-10T23:18:45+02:00</time>
      </trkpt>
      <trkpt lat="42.83974" lon="1.48156">
        <ele>1076</ele>
        <time>2018-07-10T23:18:50+02:00</time>
      </trkpt>
      <trkpt lat="42.83954" lon="1.4807">
        <ele>1077</ele>
        <time>2018-07-10T23:18:55+02:00</time>
      </trkpt>
      <trkpt lat="42.83958" lon="1.47993">
        <ele>1084</ele>
        <time>2018-07-10T23:19:00+02:00</time>
      </trkpt>
      <trkpt lat="42.83934" lon="1.47897">
        <ele>1082</ele>
        <time>2018-07-10T23:19:05+02:00</time>
      </trkpt>
      <trkpt lat="42.83903" lon="1.4782">
        <ele>1085</ele>
        <time>2018-07-10T23:19:10+02:00</time>
      </trkpt>
      <trkpt lat="42.83891" lon="1.47752">
        <ele>1091</ele>
        <time>2018-07-10T23:19:15+02:00</time>
      </trkpt>
      <trkpt lat="42.83898" lon="1.47696">
        <ele>1089</ele>
        <time>2018-07-10T23:19:20+02:00</time>
      </trkpt>
      <trkpt lat="42.83902" lon="1.47636">
        <ele>1090</ele>
        <time>2018-07-10T23:19:25+02:00</time>
      </trkpt>
      <trkpt lat="42.83889" lon="1.47598">
        <ele>1092</ele>
        <time>2018-07-10T23:19:30+02:00</time>
      </trkpt>
      <trkpt lat="42.83863" lon="1.47571">
        <ele>1093</ele>
        <time>2018-07-10T23:19:35+02:00</time>
      </trkpt>
      <trkpt lat="42.83837" lon="1.47512">
        <ele>1091</ele>
        <time>2018-07-10T23:19:40+02:00</time>
      </trkpt>
      <trkpt lat="42.83811" lon="1.4746">
        <ele>1106</ele>
        <time>2018-07-10T23:19:45+02:00</time>
      </trkpt>
      <trkpt lat="42.83796" lon="1.47474">
        <ele>1112</ele>
        <time>2018-07-10T23:19:50+02:00</time>
      </trkpt>
      <trkpt lat="42.83798" lon="1.47536">
        <ele>1111</ele>
        <time>2018-07-10T23:19:55+02:00</time>
      </trkpt>
      <trkpt lat="42.83812" lon="1.47603">
        <ele>1106</ele>
        <time>2018-07-10T23:20:00+02:00</time>
      </trkpt>
      <trkpt lat="42.838" lon="1.47645">
        <ele>1117</ele>
        <time>2018-07-10T23:20:05+02:00</time>
      </trkpt>
      <trkpt lat="42.83798" lon="1.47727">
        <ele>1124</ele>
        <time>2018-07-10T23:20:10+02:00</time>
      </trkpt>
      <trkpt lat="42.83785" lon="1.47773">
        <ele>1134</ele>
        <time>2018-07-10T23:20:15+02:00</time>
      </trkpt>
      <trkpt lat="42.83796" lon="1.4784">
        <ele>1127</ele>
        <time>2018-07-10T23:20:20+02:00</time>
      </trkpt>
      <trkpt lat="42.83777" lon="1.47912">
        <ele>1144</ele>
        <time>2018-07-10T23:20:25+02:00</time>
      </trkpt>
      <trkpt lat="42.83762" lon="1.47831">
        <ele>1151</ele>
        <time>2018-07-10T23:20:30+02:00</time>
      </trkpt>
      <trkpt lat="42.83719" lon="1.47713">
        <ele>1177</ele>
        <time>2018-07-10T23:20:35+02:00</time>
      </trkpt>
      <trkpt lat="42.83686" lon="1.47651">
        <ele>1193</ele>
        <time>2018-07-10T23:20:40+02:00</time>
      </trkpt>
      <trkpt lat="42.83679" lon="1.47611">
        <ele>1192</ele>
        <time>2018-07-10T23:20:45+02:00</time>
      </trkpt>
      <trkpt lat="42.83657" lon="1.47554">
        <ele>1206</ele>
        <time>2018-07-10T23:20:50+02:00</time>
      </trkpt>
      <trkpt lat="42.8366" lon="1.47469">
        <ele>1204</ele>
        <time>2018-07-10T23:20:55+02:00</time>
      </trkpt>
      <trkpt lat="42.83633" lon="1.47395">
        <ele>1215</ele>
        <time>2018-07-10T23:21:00+02:00</time>
      </trkpt>
      <trkpt lat="42.83602" lon="1.47298">
        <ele>1229</ele>
        <time>2018-07-10T23:21:05+02:00</time>
      </trkpt>
      <trkpt lat="42.83553" lon="1.47242">
        <ele>1247</ele>
        <time>2018-07-10T23:21:10+02:00</time>
      </trkpt>
      <trkpt lat="42.8352" lon="1.47193">
        <ele>1257</ele>
        <time>2018-07-10T23:21:15+02:00</time>
      </trkpt>
      <trkpt lat="42.83464" lon="1.47173">
        <ele>1272</ele>
        <time>2018-07-10T23:21:20+02:00</time>
      </trkpt>
      <trkpt lat="42.8342" lon="1.47155">
        <ele>1284</ele>
        <time>2018-07-10T23:21:25+02:00</time>
      </trkpt>
      <trkpt lat="42.83397" lon="1.47116">
        <ele>1288</ele>
        <time>2018-07-10T23:21:30+02:00</time>
      </trkpt>
      <trkpt lat="42.83376" lon="1.47099">
        <ele>1291</ele>
        <time>2018-07-10T23:21:35+02:00</time>
      </trkpt>
      <trkpt lat="42.8332" lon="1.47056">
        <ele>1302</ele>
        <time>2018-07-10T23:21:40+02:00</time>
      </trkpt>
      <trkpt lat="42.83296" lon="1.47051">
        <ele>1309</ele>
        <time>2018-07-10T23:21:45+02:00</time>
      </trkpt>
      <trkpt lat="42.8328" lon="1.4701">
        <ele>1312</ele>
        <time>2018-07-10T23:21:50+02:00</time>
      </trkpt>
      <trkpt lat="42.83265" lon="1.46947">
        <ele>1324</ele>
        <time>2018-07-10T23:21:55+02:00</time>
      </trkpt>
      <trkpt lat="42.83189" lon="1.46938">
        <ele>1340</ele>
        <time>2018-07-10T23:22:00+02:00</time>
      </trkpt>
      <trkpt lat="42.83121" lon="1.46902">
        <ele>1367</ele>
        <time>2018-07-10T23:22:05+02:00</time>
      </trkpt>
      <trkpt lat="42.8309" lon="1.46914">
        <ele>1374</ele>
        <time>2018-07-10T23:22:10+02:00</time>
      </trkpt>
      <trkpt lat="42.83065" lon="1.46949">
        <ele>1387</ele>
        <time>2018-07-10T23:22:15+02:00</time>
      </trkpt>
      <trkpt lat="42.83061" lon="1.46977">
        <ele>1390</ele>
        <time>2018-07-10T23:22:20+02:00</time>
      </trkpt>
      <trkpt lat="42.83038" lon="1.46994">
        <ele>1402</ele>
        <time>2018-07-10T23:22:25+02:00</time>
      </trkpt>
      <trkpt lat="42.83032" lon="1.47036">
        <ele>1412</ele>
        <time>2018-07-10T23:22:30+02:00</time>
      </trkpt>
      <trkpt lat="42.82999" lon="1.47025">
        <ele>1428</ele>
        <time>2018-07-10T23:22:35+02:00</time>
      </trkpt>
      <trkpt lat="42.82981" lon="1.47033">
        <ele>1441</ele>
        <time>2018-07-10T23:22:40+02:00</time>
      </trkpt>
      <trkpt lat="42.82977" lon="1.47077">
        <ele>1452</ele>
        <time>2018-07-10T23:22:45+02:00</time>
      </trkpt>
      <trkpt lat="42.82988" lon="1.47156">
        <ele>1468</ele>
        <time>2018-07-10T23:22:50+02:00</time>
      </trkpt>
      <trkpt lat="42.82999" lon="1.47174">
        <ele>1467</ele>
        <time>2018-07-10T23:22:55+02:00</time>
      </trkpt>
      <trkpt lat="42.82972" lon="1.47174">
        <ele>1483</ele>
        <time>2018-07-10T23:23:00+02:00</time>
      </trkpt>
      <trkpt lat="42.82926" lon="1.47162">
        <ele>1507</ele>
        <time>2018-07-10T23:23:05+02:00</time>
      </trkpt>
      <trkpt lat="42.8292" lon="1.47177">
        <ele>1516</ele>
        <time>2018-07-10T23:23:10+02:00</time>
      </trkpt>
      <trkpt lat="42.82889" lon="1.47174">
        <ele>1535</ele>
        <time>2018-07-10T23:23:15+02:00</time>
      </trkpt>
      <trkpt lat="42.82877" lon="1.47187">
        <ele>1547</ele>
        <time>2018-07-10T23:23:20+02:00</time>
      </trkpt>
      <trkpt lat="42.82836" lon="1.47165">
        <ele>1566</ele>
        <time>2018-07-10T23:23:25+02:00</time>
      </trkpt>
      <trkpt lat="42.82808" lon="1.47126">
        <ele>1577</ele>
        <time>2018-07-10T23:23:30+02:00</time>
      </trkpt>
      <trkpt lat="42.82767" lon="1.47086">
        <ele>1600</ele>
        <time>2018-07-10T23:23:35+02:00</time>
      </trkpt>
      <trkpt lat="42.82747" lon="1.47057">
        <ele>1614</ele>
        <time>2018-07-10T23:23:40+02:00</time>
      </trkpt>
      <trkpt lat="42.82756" lon="1.47035">
        <ele>1606</ele>
        <time>2018-07-10T23:23:45+02:00</time>
      </trkpt>
      <trkpt lat="42.82769" lon="1.46992">
        <ele>1594</ele>
        <time>2018-07-10T23:23:50+02:00</time>
      </trkpt>
      <trkpt lat="42.82772" lon="1.46954">
        <ele>1588</ele>
        <time>2018-07-10T23:23:55+02:00</time>
      </trkpt>
      <trkpt lat="42.82749" lon="1.46918">
        <ele>1605</ele>
        <time>2018-07-10T23:24:00+02:00</time>
      </trkpt>
      <trkpt lat="42.82725" lon="1.46902">
        <ele>1615</ele>
        <time>2018-07-10T23:24:05+02:00</time>
      </trkpt>
      <trkpt lat="42.82674" lon="1.46868">
        <ele>1632</ele>
        <time>2018-07-10T23:24:10+02:00</time>
      </trkpt>
      <trkpt lat="42.8264" lon="1.46872">
        <ele>1645</ele>
        <time>2018-07-10T23:24:15+02:00</time>
      </trkpt>
      <trkpt lat="42.82613" lon="1.46847">
        <ele>1649</ele>
        <time>2018-07-10T23:24:20+02:00</time>
      </trkpt>
      <trkpt lat="42.82569" lon="1.4683">
        <ele>1661</ele>
        <time>2018-07-10T23:24:25+02:00</time>
      </trkpt>
      <trkpt lat="42.82558" lon="1.4681">
        <ele>1664</ele>
        <time>2018-07-10T23:24:30+02:00</time>
      </trkpt>
      <trkpt lat="42.82544" lon="1.46784">
        <ele>1667</ele>
        <time>2018-07-10T23:24:35+02:00</time>
      </trkpt>
      <trkpt lat="42.82512" lon="1.46779">
        <ele>1677</ele>
        <time>2018-07-10T23:24:40+02:00</time>
      </trkpt>
      <trkpt lat="42.82508" lon="1.46751">
        <ele>1676</ele>
        <time>2018-07-10T23:24:45+02:00</time>
      </trkpt>
      <trkpt lat="42.82476" lon="1.4672">
        <ele>1686</ele>
        <time>2018-07-10T23:24:50+02:00</time>
      </trkpt>
      <trkpt lat="42.82418" lon="1.46674">
        <ele>1696</ele>
        <time>2018-07-10T23:24:55+02:00</time>
      </trkpt>
      <trkpt lat="42.82412" lon="1.46639">
        <ele>1698</ele>
        <time>2018-07-10T23:25:00+02:00</time>
      </trkpt>
      <trkpt lat="42.8239" lon="1.46625">
        <ele>1703</ele>
        <time>2018-07-10T23:25:05+02:00</time>
      </trkpt>
      <trkpt lat="42.82383" lon="1.46603">
        <ele>1705</ele>
        <time>2018-07-10T23:25:10+02:00</time>
      </trkpt>
      <trkpt lat="42.82356" lon="1.46582">
        <ele>1712</ele>
        <time>2018-07-10T23:25:15+02:00</time>
      </trkpt>
      <trkpt lat="42.82344" lon="1.46545">
        <ele>1709</ele>
        <time>2018-07-10T23:25:20+02:00</time>
      </trkpt>
      <trkpt lat="42.82346" lon="1.46523">
        <ele>1707</ele>
        <time>2018-07-10T23:25:25+02:00</time>
      </trkpt>
      <trkpt lat="42.82344" lon="1.46466">
        <ele>1705</ele>
        <time>2018-07-10T23:25:30+02:00</time>
      </trkpt>
      <trkpt lat="42.82328" lon="1.46438">
        <ele>1709</ele>
        <time>2018-07-10T23:25:35+02:00</time>
      </trkpt>
      <trkpt lat="42.82299" lon="1.46398">
        <ele>1730</ele>
        <time>2018-07-10T23:25:40+02:00</time>
      </trkpt>
      <trkpt lat="42.82292" lon="1.4636">
        <ele>1739</ele>
        <time>2018-07-10T23:25:45+02:00</time>
      </trkpt>
      <trkpt lat="42.8227" lon="1.46319">
        <ele>1753</ele>
        <time>2018-07-10T23:25:50+02:00</time>
      </trkpt>
      <trkpt lat="42.82265" lon="1.46286">
        <ele>1758</ele>
        <time>2018-07-10T23:25:55+02:00</time>
      </trkpt>
      <trkpt lat="42.8228" lon="1.46243">
        <ele>1757</ele>
        <time>2018-07-10T23:26:00+02:00</time>
      </trkpt>
      <trkpt lat="42.82298" lon="1.46213">
        <ele>1758</ele>
        <time>2018-07-10T23:26:05+02:00</time>
      </trkpt>
      <trkpt lat="42.82304" lon="1.46179">
        <ele>1765</ele>
        <time>2018-07-10T23:26:10+02:00</time>
      </trkpt>
      <trkpt lat="42.82294" lon="1.46145">
        <ele>1775</ele>
        <time>2018-07-10T23:26:15+02:00</time>
      </trkpt>
      <trkpt lat="42.82287" lon="1.46125">
        <ele>1779</ele>
        <time>2018-07-10T23:26:20+02:00</time>
      </trkpt>
      <trkpt lat="42.8227" lon="1.46099">
        <ele>1783</ele>
        <time>2018-07-10T23:26:25+02:00</time>
      </trkpt>
      <trkpt lat="42.82277" lon="1.46082">
        <ele>1785</ele>
        <time>2018-07-10T23:26:30+02:00</time>
      </trkpt>
      <trkpt lat="42.82272" lon="1.4606">
        <ele>1784</ele>
        <time>2018-07-10T23:26:35+02:00</time>
      </trkpt>
      <trkpt lat="42.82277" lon="1.46044">
        <ele>1785</ele>
        <time>2018-07-10T23:26:40+02:00</time>
      </trkpt>
      <trkpt lat="42.82283" lon="1.46005">
        <ele>1786</ele>
        <time>2018-07-10T23:26:45+02:00</time>
      </trkpt>
      <trkpt lat="42.82305" lon="1.45998">
        <ele>1792</ele>
        <time>2018-07-10T23:26:50+02:00</time>
      </trkpt>
      <trkpt lat="42.8233" lon="1.46011">
        <ele>1798</ele>
        <time>2018-07-10T23:26:55+02:00</time>
      </trkpt>
      <trkpt lat="42.82346" lon="1.46011">
        <ele>1798</ele>
        <time>2018-07-10T23:27:00+02:00</time>
      </trkpt>
      <trkpt lat="42.82372" lon="1.46015">
        <ele>1796</ele>
        <time>2018-07-10T23:27:05+02:00</time>
      </trkpt>
      <trkpt lat="42.82386" lon="1.46002">
        <ele>1798</ele>
        <time>2018-07-10T23:27:10+02:00</time>
      </trkpt>
      <trkpt lat="42.82386" lon="1.45982">
        <ele>1799</ele>
        <time>2018-07-10T23:27:15+02:00</time>
      </trkpt>
      <trkpt lat="42.82404" lon="1.4598">
        <ele>1799</ele>
        <time>2018-07-10T23:27:20+02:00</time>
      </trkpt>
      <trkpt lat="42.82428" lon="1.4595">
        <ele>1800</ele>
        <time>2018-07-10T23:27:25+02:00</time>
      </trkpt>
      <trkpt lat="42.82468" lon="1.45923">
        <ele>1800</ele>
        <time>2018-07-10T23:27:30+02:00</time>
      </trkpt>
      <trkpt lat="42.82508" lon="1.4591">
        <ele>1800</ele>
        <time>2018-07-10T23:27:35+02:00</time>
      </trkpt>
      <trkpt lat="42.82527" lon="1.45905">
        <ele>1799</ele>
        <time>2018-07-10T23:27:40+02:00</time>
      </trkpt>
      <trkpt lat="42.82555" lon="1.45915">
        <ele>1796</ele>
        <time>2018-07-10T23:27:45+02:00</time>
      </trkpt>
      <trkpt lat="42.82594" lon="1.45902">
        <ele>1795</ele>
        <time>2018-07-10T23:27:50+02:00</time>
      </trkpt>
      <trkpt lat="42.82624" lon="1.45891">
        <ele>1796</ele>
        <time>2018-07-10T23:27:55+02:00</time>
      </trkpt>
      <trkpt lat="42.82637" lon="1.45861">
        <ele>1803</ele>
        <time>2018-07-10T23:28:00+02:00</time>
      </trkpt>
      <trkpt lat="42.82653" lon="1.45857">
        <ele>1804</ele>
        <time>2018-07-10T23:28:05+02:00</time>
      </trkpt>
      <trkpt lat="42.82688" lon="1.45847">
        <ele>1807</ele>
        <time>2018-07-10T23:28:10+02:00</time>
      </trkpt>
      <trkpt lat="42.82723" lon="1.45839">
        <ele>1810</ele>
        <time>2018-07-10T23:28:15+02:00</time>
      </trkpt>
      <trkpt lat="42.82755" lon="1.45846">
        <ele>1808</ele>
        <time>2018-07-10T23:28:20+02:00</time>
      </trkpt>
      <trkpt lat="42.82793" lon="1.45854">
        <ele>1798</ele>
        <time>2018-07-10T23:28:25+02:00</time>
      </trkpt>
      <trkpt lat="42.82821" lon="1.45861">
        <ele>1791</ele>
        <time>2018-07-10T23:28:30+02:00</time>
      </trkpt>
      <trkpt lat="42.8284" lon="1.45876">
        <ele>1784</ele>
        <time>2018-07-10T23:28:35+02:00</time>
      </trkpt>
      <trkpt lat="42.82855" lon="1.45878">
        <ele>1778</ele>
        <time>2018-07-10T23:28:40+02:00</time>
      </trkpt>
      <trkpt lat="42.82861" lon="1.45847">
        <ele>1779</ele>
        <time>2018-07-10T23:28:45+02:00</time>
      </trkpt>
      <trkpt lat="42.8284" lon="1.4579">
        <ele>1783</ele>
        <time>2018-07-10T23:28:50+02:00</time>
      </trkpt>
      <trkpt lat="42.82821" lon="1.4576">
        <ele>1781</ele>
        <time>2018-07-10T23:28:55+02:00</time>
      </trkpt>
      <trkpt lat="42.82852" lon="1.45751">
        <ele>1771</ele>
        <time>2018-07-10T23:29:00+02:00</time>
      </trkpt>
      <trkpt lat="42.82811" lon="1.45713">
        <ele>1768</ele>
        <time>2018-07-10T23:29:05+02:00</time>
      </trkpt>
      <trkpt lat="42.82808" lon="1.4567">
        <ele>1755</ele>
        <time>2018-07-10T23:29:10+02:00</time>
      </trkpt>
      <trkpt lat="42.828" lon="1.45661">
        <ele>1752</ele>
        <time>2018-07-10T23:29:15+02:00</time>
      </trkpt>
      <trkpt lat="42.82838" lon="1.45625">
        <ele>1738</ele>
        <time>2018-07-10T23:29:20+02:00</time>
      </trkpt>
      <trkpt lat="42.82863" lon="1.45567">
        <ele>1715</ele>
        <time>2018-07-10T23:29:25+02:00</time>
      </trkpt>
      <trkpt lat="42.8289" lon="1.45563">
        <ele>1709</ele>
        <time>2018-07-10T23:29:30+02:00</time>
      </trkpt>
      <trkpt lat="42.82897" lon="1.4554">
        <ele>1699</ele>
        <time>2018-07-10T23:29:35+02:00</time>
      </trkpt>
      <trkpt lat="42.82916" lon="1.45542">
        <ele>1695</ele>
        <time>2018-07-10T23:29:40+02:00</time>
      </trkpt>
      <trkpt lat="42.82942" lon="1.45536">
        <ele>1681</ele>
        <time>2018-07-10T23:29:45+02:00</time>
      </trkpt>
      <trkpt lat="42.82948" lon="1.45515">
        <ele>1669</ele>
        <time>2018-07-10T23:29:50+02:00</time>
      </trkpt>
      <trkpt lat="42.82934" lon="1.45499">
        <ele>1669</ele>
        <time>2018-07-10T23:29:55+02:00</time>
      </trkpt>
      <trkpt lat="42.82924" lon="1.45473">
        <ele>1667</ele>
        <time>2018-07-10T23:30:00+02:00</time>
      </trkpt>
      <trkpt lat="42.82921" lon="1.45456">
        <ele>1663</ele>
        <time>2018-07-10T23:30:05+02:00</time>
      </trkpt>
      <trkpt lat="42.82906" lon="1.45449">
        <ele>1667</ele>
        <time>2018-07-10T23:30:10+02:00</time>
      </trkpt>
      <trkpt lat="42.82901" lon="1.45438">
        <ele>1667</ele>
        <time>2018-07-10T23:30:15+02:00</time>
      </trkpt>
      <trkpt lat="42.82908" lon="1.45425">
        <ele>1660</ele>
        <time>2018-07-10T23:30:20+02:00</time>
      </trkpt>
      <trkpt lat="42.82928" lon="1.45417">
        <ele>1648</ele>
        <time>2018-07-10T23:30:25+02:00</time>
      </trkpt>
      <trkpt lat="42.82942" lon="1.45414">
        <ele>1641</ele>
        <time>2018-07-10T23:30:30+02:00</time>
      </trkpt>
      <trkpt lat="42.82933" lon="1.45385">
        <ele>1645</ele>
        <time>2018-07-10T23:30:35+02:00</time>
      </trkpt>
      <trkpt lat="42.8293" lon="1.45371">
        <ele>1647</ele>
        <time>2018-07-10T23:30:40+02:00</time>
      </trkpt>
      <trkpt lat="42.82975" lon="1.45359">
        <ele>1614</ele>
        <time>2018-07-10T23:30:45+02:00</time>
      </trkpt>
      <trkpt lat="42.82987" lon="1.45327">
        <ele>1599</ele>
        <time>2018-07-10T23:30:50+02:00</time>
      </trkpt>
      <trkpt lat="42.82986" lon="1.45271">
        <ele>1602</ele>
        <time>2018-07-10T23:30:55+02:00</time>
      </trkpt>
      <trkpt lat="42.83002" lon="1.45245">
        <ele>1587</ele>
        <time>2018-07-10T23:31:00+02:00</time>
      </trkpt>
      <trkpt lat="42.83029" lon="1.45226">
        <ele>1566</ele>
        <time>2018-07-10T23:31:05+02:00</time>
      </trkpt>
      <trkpt lat="42.83046" lon="1.45241">
        <ele>1548</ele>
        <time>2018-07-10T23:31:10+02:00</time>
      </trkpt>
      <trkpt lat="42.83057" lon="1.45266">
        <ele>1539</ele>
        <time>2018-07-10T23:31:15+02:00</time>
      </trkpt>
      <trkpt lat="42.83084" lon="1.45275">
        <ele>1518</ele>
        <time>2018-07-10T23:31:20+02:00</time>
      </trkpt>
      <trkpt lat="42.83127" lon="1.45282">
        <ele>1504</ele>
        <time>2018-07-10T23:31:25+02:00</time>
      </trkpt>
      <trkpt lat="42.83171" lon="1.45296">
        <ele>1489</ele>
        <time>2018-07-10T23:31:30+02:00</time>
      </trkpt>
      <trkpt lat="42.83197" lon="1.45301">
        <ele>1481</ele>
        <time>2018-07-10T23:31:35+02:00</time>
      </trkpt>
      <trkpt lat="42.83217" lon="1.45307">
        <ele>1475</ele>
        <time>2018-07-10T23:31:40+02:00</time>
      </trkpt>
      <trkpt lat="42.83234" lon="1.45299">
        <ele>1470</ele>
        <time>2018-07-10T23:31:45+02:00</time>
      </trkpt>
      <trkpt lat="42.8326" lon="1.45305">
        <ele>1464</ele>
        <time>2018-07-10T23:31:50+02:00</time>
      </trkpt>
      <trkpt lat="42.83283" lon="1.45337">
        <ele>1462</ele>
        <time>2018-07-10T23:31:55+02:00</time>
      </trkpt>
      <trkpt lat="42.83283" lon="1.45371">
        <ele>1463</ele>
        <time>2018-07-10T23:32:00+02:00</time>
      </trkpt>
      <trkpt lat="42.83281" lon="1.45398">
        <ele>1465</ele>
        <time>2018-07-10T23:32:05+02:00</time>
      </trkpt>
      <trkpt lat="42.83281" lon="1.45437">
        <ele>1461</ele>
        <time>2018-07-10T23:32:10+02:00</time>
      </trkpt>
      <trkpt lat="42.83296" lon="1.45467">
        <ele>1453</ele>
        <time>2018-07-10T23:32:15+02:00</time>
      </trkpt>
      <trkpt lat="42.83322" lon="1.45507">
        <ele>1441</ele>
        <time>2018-07-10T23:32:20+02:00</time>
      </trkpt>
      <trkpt lat="42.83303" lon="1.45511">
        <ele>1443</ele>
        <time>2018-07-10T23:32:25+02:00</time>
      </trkpt>
      <trkpt lat="42.83278" lon="1.45487">
        <ele>1451</ele>
        <time>2018-07-10T23:32:30+02:00</time>
      </trkpt>
      <trkpt lat="42.83275" lon="1.45522">
        <ele>1446</ele>
        <time>2018-07-10T23:32:35+02:00</time>
      </trkpt>
      <trkpt lat="42.83286" lon="1.45549">
        <ele>1441</ele>
        <time>2018-07-10T23:32:40+02:00</time>
      </trkpt>
      <trkpt lat="42.833" lon="1.45555">
        <ele>1437</ele>
        <time>2018-07-10T23:32:45+02:00</time>
      </trkpt>
      <trkpt lat="42.83331" lon="1.45584">
        <ele>1425</ele>
        <time>2018-07-10T23:32:50+02:00</time>
      </trkpt>
      <trkpt lat="42.83347" lon="1.45588">
        <ele>1420</ele>
        <time>2018-07-10T23:32:55+02:00</time>
      </trkpt>
      <trkpt lat="42.83374" lon="1.45621">
        <ele>1416</ele>
        <time>2018-07-10T23:33:00+02:00</time>
      </trkpt>
      <trkpt lat="42.83395" lon="1.45648">
        <ele>1411</ele>
        <time>2018-07-10T23:33:05+02:00</time>
      </trkpt>
      <trkpt lat="42.83416" lon="1.4564">
        <ele>1404</ele>
        <time>2018-07-10T23:33:10+02:00</time>
      </trkpt>
      <trkpt lat="42.83426" lon="1.45613">
        <ele>1398</ele>
        <time>2018-07-10T23:33:15+02:00</time>
      </trkpt>
      <trkpt lat="42.83452" lon="1.45608">
        <ele>1390</ele>
        <time>2018-07-10T23:33:20+02:00</time>
      </trkpt>
      <trkpt lat="42.83474" lon="1.45597">
        <ele>1383</ele>
        <time>2018-07-10T23:33:25+02:00</time>
      </trkpt>
      <trkpt lat="42.83499" lon="1.45612">
        <ele>1376</ele>
        <time>2018-07-10T23:33:30+02:00</time>
      </trkpt>
      <trkpt lat="42.83507" lon="1.45627">
        <ele>1373</ele>
        <time>2018-07-10T23:33:35+02:00</time>
      </trkpt>
      <trkpt lat="42.83559" lon="1.45734">
        <ele>1353</ele>
        <time>2018-07-10T23:33:40+02:00</time>
      </trkpt>
      <trkpt lat="42.83583" lon="1.45795">
        <ele>1344</ele>
        <time>2018-07-10T23:33:45+02:00</time>
      </trkpt>
      <trkpt lat="42.83604" lon="1.45873">
        <ele>1338</ele>
        <time>2018-07-10T23:33:50+02:00</time>
      </trkpt>
      <trkpt lat="42.83623" lon="1.45936">
        <ele>1327</ele>
        <time>2018-07-10T23:33:55+02:00</time>
      </trkpt>
      <trkpt lat="42.83631" lon="1.45919">
        <ele>1322</ele>
        <time>2018-07-10T23:34:00+02:00</time>
      </trkpt>
      <trkpt lat="42.83647" lon="1.45938">
        <ele>1309</ele>
        <time>2018-07-10T23:34:05+02:00</time>
      </trkpt>
      <trkpt lat="42.83658" lon="1.45906">
        <ele>1302</ele>
        <time>2018-07-10T23:34:10+02:00</time>
      </trkpt>
      <trkpt lat="42.83666" lon="1.45923">
        <ele>1297</ele>
        <time>2018-07-10T23:34:15+02:00</time>
      </trkpt>
      <trkpt lat="42.83672" lon="1.45943">
        <ele>1291</ele>
        <time>2018-07-10T23:34:20+02:00</time>
      </trkpt>
      <trkpt lat="42.8368" lon="1.45945">
        <ele>1286</ele>
        <time>2018-07-10T23:34:25+02:00</time>
      </trkpt>
      <trkpt lat="42.83689" lon="1.45936">
        <ele>1281</ele>
        <time>2018-07-10T23:34:30+02:00</time>
      </trkpt>
      <trkpt lat="42.83703" lon="1.45951">
        <ele>1271</ele>
        <time>2018-07-10T23:34:35+02:00</time>
      </trkpt>
      <trkpt lat="42.83713" lon="1.45941">
        <ele>1265</ele>
        <time>2018-07-10T23:34:40+02:00</time>
      </trkpt>
      <trkpt lat="42.83726" lon="1.45955">
        <ele>1256</ele>
        <time>2018-07-10T23:34:45+02:00</time>
      </trkpt>
      <trkpt lat="42.83735" lon="1.45942">
        <ele>1251</ele>
        <time>2018-07-10T23:34:50+02:00</time>
      </trkpt>
      <trkpt lat="42.83749" lon="1.4596">
        <ele>1241</ele>
        <time>2018-07-10T23:34:55+02:00</time>
      </trkpt>
      <trkpt lat="42.83756" lon="1.45949">
        <ele>1239</ele>
        <time>2018-07-10T23:35:00+02:00</time>
      </trkpt>
      <trkpt lat="42.83769" lon="1.45969">
        <ele>1233</ele>
        <time>2018-07-10T23:35:05+02:00</time>
      </trkpt>
      <trkpt lat="42.8378" lon="1.45957">
        <ele>1231</ele>
        <time>2018-07-10T23:35:10+02:00</time>
      </trkpt>
      <trkpt lat="42.83788" lon="1.45982">
        <ele>1226</ele>
        <time>2018-07-10T23:35:15+02:00</time>
      </trkpt>
      <trkpt lat="42.83806" lon="1.45962">
        <ele>1222</ele>
        <time>2018-07-10T23:35:20+02:00</time>
      </trkpt>
      <trkpt lat="42.83823" lon="1.45989">
        <ele>1214</ele>
        <time>2018-07-10T23:35:25+02:00</time>
      </trkpt>
      <trkpt lat="42.83831" lon="1.45976">
        <ele>1213</ele>
        <time>2018-07-10T23:35:30+02:00</time>
      </trkpt>
      <trkpt lat="42.83847" lon="1.46006">
        <ele>1210</ele>
        <time>2018-07-10T23:35:35+02:00</time>
      </trkpt>
      <trkpt lat="42.83854" lon="1.4605">
        <ele>1207</ele>
        <time>2018-07-10T23:35:40+02:00</time>
      </trkpt>
      <trkpt lat="42.83854" lon="1.46102">
        <ele>1203</ele>
        <time>2018-07-10T23:35:45+02:00</time>
      </trkpt>
      <trkpt lat="42.83841" lon="1.46137">
        <ele>1200</ele>
        <time>2018-07-10T23:35:50+02:00</time>
      </trkpt>
      <trkpt lat="42.83832" lon="1.46142">
        <ele>1200</ele>
        <time>2018-07-10T23:35:55+02:00</time>
      </trkpt>
      <trkpt lat="42.83837" lon="1.46178">
        <ele>1199</ele>
        <time>2018-07-10T23:36:00+02:00</time>
      </trkpt>
      <trkpt lat="42.83841" lon="1.46211">
        <ele>1198</ele>
        <time>2018-07-10T23:36:05+02:00</time>
      </trkpt>
      <trkpt lat="42.83839" lon="1.46266">
        <ele>1196</ele>
        <time>2018-07-10T23:36:10+02:00</time>
      </trkpt>
      <trkpt lat="42.83834" lon="1.46308">
        <ele>1194</ele>
        <time>2018-07-10T23:36:15+02:00</time>
      </trkpt>
      <trkpt lat="42.83845" lon="1.46333">
        <ele>1193</ele>
        <time>2018-07-10T23:36:20+02:00</time>
      </trkpt>
      <trkpt lat="42.83861" lon="1.46343">
        <ele>1193</ele>
        <time>2018-07-10T23:36:25+02:00</time>
      </trkpt>
      <trkpt lat="42.83898" lon="1.4635">
        <ele>1193</ele>
        <time>2018-07-10T23:36:30+02:00</time>
      </trkpt>
      <trkpt lat="42.83896" lon="1.4639">
        <ele>1192</ele>
        <time>2018-07-10T23:36:35+02:00</time>
      </trkpt>
      <trkpt lat="42.83884" lon="1.46465">
        <ele>1188</ele>
        <time>2018-07-10T23:36:40+02:00</time>
      </trkpt>
      <trkpt lat="42.83904" lon="1.46565">
        <ele>1184</ele>
        <time>2018-07-10T23:36:45+02:00</time>
      </trkpt>
      <trkpt lat="42.83919" lon="1.466">
        <ele>1184</ele>
        <time>2018-07-10T23:36:50+02:00</time>
      </trkpt>
      <trkpt lat="42.8391" lon="1.46669">
        <ele>1173</ele>
        <time>2018-07-10T23:36:55+02:00</time>
      </trkpt>
      <trkpt lat="42.83901" lon="1.46729">
        <ele>1169</ele>
        <time>2018-07-10T23:37:00+02:00</time>
      </trkpt>
      <trkpt lat="42.8389" lon="1.46782">
        <ele>1163</ele>
        <time>2018-07-10T23:37:05+02:00</time>
      </trkpt>
      <trkpt lat="42.8388" lon="1.46844">
        <ele>1157</ele>
        <time>2018-07-10T23:37:10+02:00</time>
      </trkpt>
      <trkpt lat="42.83878" lon="1.46917">
        <ele>1152</ele>
        <time>2018-07-10T23:37:15+02:00</time>
      </trkpt>
      <trkpt lat="42.83891" lon="1.46961">
        <ele>1150</ele>
        <time>2018-07-10T23:37:20+02:00</time>
      </trkpt>
      <trkpt lat="42.83891" lon="1.47005">
        <ele>1146</ele>
        <time>2018-07-10T23:37:25+02:00</time>
      </trkpt>
      <trkpt lat="42.83886" lon="1.47027">
        <ele>1144</ele>
        <time>2018-07-10T23:37:30+02:00</time>
      </trkpt>
      <trkpt lat="42.83874" lon="1.47049">
        <ele>1140</ele>
        <time>2018-07-10T23:37:35+02:00</time>
      </trkpt>
      <trkpt lat="42.83867" lon="1.47077">
        <ele>1137</ele>
        <time>2018-07-10T23:37:40+02:00</time>
      </trkpt>
      <trkpt lat="42.83868" lon="1.47116">
        <ele>1133</ele>
        <time>2018-07-10T23:37:45+02:00</time>
      </trkpt>
      <trkpt lat="42.83877" lon="1.47171">
        <ele>1131</ele>
        <time>2018-07-10T23:37:50+02:00</time>
      </trkpt>
      <trkpt lat="42.8387" lon="1.47205">
        <ele>1127</ele>
        <time>2018-07-10T23:37:55+02:00</time>
      </trkpt>
      <trkpt lat="42.83852" lon="1.47265">
        <ele>1118</ele>
        <time>2018-07-10T23:38:00+02:00</time>
      </trkpt>
      <trkpt lat="42.83843" lon="1.47313">
        <ele>1113</ele>
        <time>2018-07-10T23:38:05+02:00</time>
      </trkpt>
      <trkpt lat="42.83847" lon="1.47351">
        <ele>1112</ele>
        <time>2018-07-10T23:38:10+02:00</time>
      </trkpt>
      <trkpt lat="42.83873" lon="1.47404">
        <ele>1115</ele>
        <time>2018-07-10T23:38:15+02:00</time>
      </trkpt>
      <trkpt lat="42.83874" lon="1.47475">
        <ele>1103</ele>
        <time>2018-07-10T23:38:20+02:00</time>
      </trkpt>
      <trkpt lat="42.83879" lon="1.47536">
        <ele>1096</ele>
        <time>2018-07-10T23:38:25+02:00</time>
      </trkpt>
      <trkpt lat="42.83889" lon="1.47598">
        <ele>1092</ele>
        <time>2018-07-10T23:38:30+02:00</time>
      </trkpt>
      <trkpt lat="42.839" lon="1.47634">
        <ele>1090</ele>
        <time>2018-07-10T23:38:35+02:00</time>
      </trkpt>
      <trkpt lat="42.839" lon="1.47693">
        <ele>1089</ele>
        <time>2018-07-10T23:38:40+02:00</time>
      </trkpt>
      <trkpt lat="42.8389" lon="1.4775">
        <ele>1091</ele>
        <time>2018-07-10T23:38:45+02:00</time>
      </trkpt>
      <trkpt lat="42.83903" lon="1.47819">
        <ele>1085</ele>
        <time>2018-07-10T23:38:50+02:00</time>
      </trkpt>
      <trkpt lat="42.83933" lon="1.47895">
        <ele>1082</ele>
        <time>2018-07-10T23:38:55+02:00</time>
      </trkpt>
      <trkpt lat="42.83958" lon="1.47995">
        <ele>1084</ele>
        <time>2018-07-10T23:39:00+02:00</time>
      </trkpt>
      <trkpt lat="42.83954" lon="1.4807">
        <ele>1077</ele>
        <time>2018-07-10T23:39:05+02:00</time>
      </trkpt>
      <trkpt lat="42.83974" lon="1.48156">
        <ele>1076</ele>
        <time>2018-07-10T23:39:10+02:00</time>
      </trkpt>
      <trkpt lat="42.83977" lon="1.48264">
        <ele>1069</ele>
        <time>2018-07-10T23:39:15+02:00</time>
      </trkpt>
      <trkpt lat="42.83998" lon="1.48374">
        <ele>1054</ele>
        <time>2018-07-10T23:39:20+02:00</time>
      </trkpt>
      <trkpt lat="42.84018" lon="1.48448">
        <ele>1053</ele>
        <time>2018-07-10T23:39:25+02:00</time>
      </trkpt>
      <trkpt lat="42.84031" lon="1.48518">
        <ele>1049</ele>
        <time>2018-07-10T23:39:30+02:00</time>
      </trkpt>
    </trkseg>
  </trk>
</gpx>